sensor_id;sensor_type;location;lat;lon;timestamp;pressure;altitude;pressure_sealevel;temperature
71205;BMP180;58935;54.498;18.544;2024-01-25T00:02:21;98958.20;;;5.40
71205;BMP180;58935;54.498;18.544;2024-01-25T00:04:48;98949.00;;;5.32
71205;BMP180;58935;54.498;18.544;2024-01-25T00:07:14;98975.40;;;5.32
71205;BMP180;58935;54.498;18.544;2024-01-25T00:09:39;98965.00;;;5.32
71205;BMP180;58935;54.498;18.544;2024-01-25T00:12:05;98984.40;;;5.30
71205;BMP180;58935;54.498;18.544;2024-01-25T00:14:31;98979.40;;;5.30
71205;BMP180;58935;54.498;18.544;2024-01-25T00:16:56;98990.00;;;5.30
71205;BMP180;58935;54.498;18.544;2024-01-25T00:19:22;98986.00;;;5.30
71205;BMP180;58935;54.498;18.544;2024-01-25T00:21:47;98989.80;;;5.30
71205;BMP180;58935;54.498;18.544;2024-01-25T00:24:13;98994.80;;;5.30
71205;BMP180;58935;54.498;18.544;2024-01-25T00:26:39;98991.00;;;5.30
71205;BMP180;58935;54.498;18.544;2024-01-25T00:29:05;98991.20;;;5.30
71205;BMP180;58935;54.498;18.544;2024-01-25T00:31:31;98997.00;;;5.30
71205;BMP180;58935;54.498;18.544;2024-01-25T00:33:57;99013.20;;;5.30
71205;BMP180;58935;54.498;18.544;2024-01-25T00:36:25;99013.80;;;5.30
71205;BMP180;58935;54.498;18.544;2024-01-25T00:38:52;99020.60;;;5.30
71205;BMP180;58935;54.498;18.544;2024-01-25T00:41:19;99018.40;;;5.30
71205;BMP180;58935;54.498;18.544;2024-01-25T00:43:46;99019.00;;;5.30
71205;BMP180;58935;54.498;18.544;2024-01-25T00:46:14;99003.20;;;5.30
71205;BMP180;58935;54.498;18.544;2024-01-25T00:48:43;99020.20;;;5.30
71205;BMP180;58935;54.498;18.544;2024-01-25T00:51:15;99018.80;;;5.24
71205;BMP180;58935;54.498;18.544;2024-01-25T00:53:42;99030.00;;;5.26
71205;BMP180;58935;54.498;18.544;2024-01-25T00:56:11;99032.40;;;5.20
71205;BMP180;58935;54.498;18.544;2024-01-25T00:58:37;99029.40;;;5.20
71205;BMP180;58935;54.498;18.544;2024-01-25T01:01:03;99039.20;;;5.20
71205;BMP180;58935;54.498;18.544;2024-01-25T01:03:29;99039.40;;;5.20
71205;BMP180;58935;54.498;18.544;2024-01-25T01:05:55;99048.00;;;5.20
71205;BMP180;58935;54.498;18.544;2024-01-25T01:08:23;99054.40;;;5.20
71205;BMP180;58935;54.498;18.544;2024-01-25T01:10:48;99050.80;;;5.20
71205;BMP180;58935;54.498;18.544;2024-01-25T01:13:14;99046.60;;;5.20
71205;BMP180;58935;54.498;18.544;2024-01-25T01:15:39;99049.20;;;5.20
71205;BMP180;58935;54.498;18.544;2024-01-25T01:18:04;99042.00;;;5.20
71205;BMP180;58935;54.498;18.544;2024-01-25T01:20:31;99046.00;;;5.16
71205;BMP180;58935;54.498;18.544;2024-01-25T01:22:56;99048.00;;;5.10
71205;BMP180;58935;54.498;18.544;2024-01-25T01:25:22;99069.60;;;5.16
71205;BMP180;58935;54.498;18.544;2024-01-25T01:27:47;99062.40;;;5.12
71205;BMP180;58935;54.498;18.544;2024-01-25T01:30:13;99058.40;;;5.10
71205;BMP180;58935;54.498;18.544;2024-01-25T01:32:38;99072.00;;;5.10
71205;BMP180;58935;54.498;18.544;2024-01-25T01:35:06;99073.20;;;5.10
71205;BMP180;58935;54.498;18.544;2024-01-25T01:37:32;99080.60;;;5.10
71205;BMP180;58935;54.498;18.544;2024-01-25T01:39:59;99081.40;;;5.10
71205;BMP180;58935;54.498;18.544;2024-01-25T01:42:27;99085.80;;;5.10
71205;BMP180;58935;54.498;18.544;2024-01-25T01:44:53;99076.60;;;5.10
71205;BMP180;58935;54.498;18.544;2024-01-25T01:47:19;99088.40;;;5.10
71205;BMP180;58935;54.498;18.544;2024-01-25T01:49:45;99081.80;;;5.00
71205;BMP180;58935;54.498;18.544;2024-01-25T01:52:13;99090.60;;;5.00
71205;BMP180;58935;54.498;18.544;2024-01-25T01:54:40;99077.60;;;5.00
71205;BMP180;58935;54.498;18.544;2024-01-25T01:57:08;99091.40;;;5.00
71205;BMP180;58935;54.498;18.544;2024-01-25T01:59:34;99084.40;;;5.00
71205;BMP180;58935;54.498;18.544;2024-01-25T02:01:59;99069.80;;;5.00
71205;BMP180;58935;54.498;18.544;2024-01-25T02:04:25;99076.60;;;5.00
71205;BMP180;58935;54.498;18.544;2024-01-25T02:06:50;99077.20;;;5.00
71205;BMP180;58935;54.498;18.544;2024-01-25T02:09:16;99078.80;;;5.00
71205;BMP180;58935;54.498;18.544;2024-01-25T02:11:42;99090.00;;;5.00
71205;BMP180;58935;54.498;18.544;2024-01-25T02:14:08;99070.60;;;5.00
71205;BMP180;58935;54.498;18.544;2024-01-25T02:16:37;99075.20;;;5.00
71205;BMP180;58935;54.498;18.544;2024-01-25T02:19:03;99064.40;;;5.00
71205;BMP180;58935;54.498;18.544;2024-01-25T02:21:30;99067.80;;;5.00
71205;BMP180;58935;54.498;18.544;2024-01-25T02:23:56;99075.80;;;5.00
71205;BMP180;58935;54.498;18.544;2024-01-25T02:26:24;99091.60;;;5.00
71205;BMP180;58935;54.498;18.544;2024-01-25T02:28:49;99082.00;;;5.00
71205;BMP180;58935;54.498;18.544;2024-01-25T02:31:14;99072.00;;;5.00
71205;BMP180;58935;54.498;18.544;2024-01-25T02:33:40;99066.20;;;5.00
71205;BMP180;58935;54.498;18.544;2024-01-25T02:36:08;99084.80;;;5.00
71205;BMP180;58935;54.498;18.544;2024-01-25T02:38:33;99083.00;;;5.00
71205;BMP180;58935;54.498;18.544;2024-01-25T02:40:59;99086.20;;;5.00
71205;BMP180;58935;54.498;18.544;2024-01-25T02:43:27;99083.00;;;5.00
71205;BMP180;58935;54.498;18.544;2024-01-25T02:45:52;99081.40;;;5.00
71205;BMP180;58935;54.498;18.544;2024-01-25T02:48:18;99103.20;;;4.96
71205;BMP180;58935;54.498;18.544;2024-01-25T02:50:43;99080.60;;;4.92
71205;BMP180;58935;54.498;18.544;2024-01-25T02:53:09;99092.80;;;4.90
71205;BMP180;58935;54.498;18.544;2024-01-25T02:55:34;99095.20;;;4.90
71205;BMP180;58935;54.498;18.544;2024-01-25T02:58:00;99086.00;;;4.90
71205;BMP180;58935;54.498;18.544;2024-01-25T03:00:27;99104.60;;;4.90
71205;BMP180;58935;54.498;18.544;2024-01-25T03:02:53;99108.60;;;4.90
71205;BMP180;58935;54.498;18.544;2024-01-25T03:05:19;99109.00;;;4.90
71205;BMP180;58935;54.498;18.544;2024-01-25T03:07:46;99106.20;;;4.90
71205;BMP180;58935;54.498;18.544;2024-01-25T03:10:12;99102.20;;;4.82
71205;BMP180;58935;54.498;18.544;2024-01-25T03:12:38;99107.00;;;4.82
71205;BMP180;58935;54.498;18.544;2024-01-25T03:15:04;99104.00;;;4.80
71205;BMP180;58935;54.498;18.544;2024-01-25T03:17:30;99114.60;;;4.80
71205;BMP180;58935;54.498;18.544;2024-01-25T03:19:56;99120.00;;;4.80
71205;BMP180;58935;54.498;18.544;2024-01-25T03:22:21;99116.20;;;4.80
71205;BMP180;58935;54.498;18.544;2024-01-25T03:24:48;99123.00;;;4.80
71205;BMP180;58935;54.498;18.544;2024-01-25T03:27:13;99140.20;;;4.74
71205;BMP180;58935;54.498;18.544;2024-01-25T03:29:42;99120.40;;;4.80
71205;BMP180;58935;54.498;18.544;2024-01-25T03:32:10;99132.80;;;4.80
71205;BMP180;58935;54.498;18.544;2024-01-25T03:34:35;99133.00;;;4.80
71205;BMP180;58935;54.498;18.544;2024-01-25T03:37:01;99136.20;;;4.80
71205;BMP180;58935;54.498;18.544;2024-01-25T03:39:27;99142.00;;;4.80
71205;BMP180;58935;54.498;18.544;2024-01-25T03:41:52;99144.80;;;4.80
71205;BMP180;58935;54.498;18.544;2024-01-25T03:44:17;99150.80;;;4.80
71205;BMP180;58935;54.498;18.544;2024-01-25T03:46:43;99145.00;;;4.80
71205;BMP180;58935;54.498;18.544;2024-01-25T03:49:08;99163.80;;;4.80
71205;BMP180;58935;54.498;18.544;2024-01-25T03:51:34;99148.80;;;4.80
71205;BMP180;58935;54.498;18.544;2024-01-25T03:53:59;99149.40;;;4.80
71205;BMP180;58935;54.498;18.544;2024-01-25T03:56:25;99152.60;;;4.80
71205;BMP180;58935;54.498;18.544;2024-01-25T03:58:52;99159.20;;;4.80
71205;BMP180;58935;54.498;18.544;2024-01-25T04:01:17;99137.80;;;4.70
71205;BMP180;58935;54.498;18.544;2024-01-25T04:03:43;99168.40;;;4.76
71205;BMP180;58935;54.498;18.544;2024-01-25T04:06:09;99165.00;;;4.80
71205;BMP180;58935;54.498;18.544;2024-01-25T04:08:34;99177.20;;;4.78
71205;BMP180;58935;54.498;18.544;2024-01-25T04:11:00;99159.40;;;4.78
71205;BMP180;58935;54.498;18.544;2024-01-25T04:13:25;99171.60;;;4.80
71205;BMP180;58935;54.498;18.544;2024-01-25T04:15:51;99170.00;;;4.80
71205;BMP180;58935;54.498;18.544;2024-01-25T04:18:16;99176.40;;;4.80
71205;BMP180;58935;54.498;18.544;2024-01-25T04:20:43;99172.60;;;4.80
71205;BMP180;58935;54.498;18.544;2024-01-25T04:23:09;99176.80;;;4.80
71205;BMP180;58935;54.498;18.544;2024-01-25T04:25:35;99198.40;;;4.80
71205;BMP180;58935;54.498;18.544;2024-01-25T04:28:01;99207.80;;;4.80
71205;BMP180;58935;54.498;18.544;2024-01-25T04:30:27;99204.00;;;4.80
71205;BMP180;58935;54.498;18.544;2024-01-25T04:32:53;99204.00;;;4.80
71205;BMP180;58935;54.498;18.544;2024-01-25T04:35:18;99202.80;;;4.80
71205;BMP180;58935;54.498;18.544;2024-01-25T04:37:44;99216.60;;;4.86
71205;BMP180;58935;54.498;18.544;2024-01-25T04:40:09;99209.80;;;4.88
71205;BMP180;58935;54.498;18.544;2024-01-25T04:42:35;99215.80;;;4.90
71205;BMP180;58935;54.498;18.544;2024-01-25T04:45:00;99195.60;;;4.90
71205;BMP180;58935;54.498;18.544;2024-01-25T04:47:26;99223.00;;;4.90
71205;BMP180;58935;54.498;18.544;2024-01-25T04:49:52;99225.80;;;4.90
71205;BMP180;58935;54.498;18.544;2024-01-25T04:52:17;99218.40;;;4.90
71205;BMP180;58935;54.498;18.544;2024-01-25T04:54:44;99236.60;;;4.90
71205;BMP180;58935;54.498;18.544;2024-01-25T04:57:10;99239.40;;;4.90
71205;BMP180;58935;54.498;18.544;2024-01-25T04:59:38;99247.80;;;4.90
71205;BMP180;58935;54.498;18.544;2024-01-25T05:02:03;99250.60;;;4.90
71205;BMP180;58935;54.498;18.544;2024-01-25T05:04:29;99237.80;;;4.90
71205;BMP180;58935;54.498;18.544;2024-01-25T05:06:57;99258.00;;;4.90
71205;BMP180;58935;54.498;18.544;2024-01-25T05:09:22;99258.00;;;4.90
71205;BMP180;58935;54.498;18.544;2024-01-25T05:11:48;99261.20;;;4.90
71205;BMP180;58935;54.498;18.544;2024-01-25T05:14:13;99265.20;;;4.90
71205;BMP180;58935;54.498;18.544;2024-01-25T05:16:39;99272.80;;;4.90
71205;BMP180;58935;54.498;18.544;2024-01-25T05:19:04;99279.60;;;4.90
71205;BMP180;58935;54.498;18.544;2024-01-25T05:21:30;99282.40;;;4.90
71205;BMP180;58935;54.498;18.544;2024-01-25T05:23:56;99283.80;;;4.90
71205;BMP180;58935;54.498;18.544;2024-01-25T05:26:22;99287.20;;;4.90
71205;BMP180;58935;54.498;18.544;2024-01-25T05:28:47;99294.60;;;4.90
71205;BMP180;58935;54.498;18.544;2024-01-25T05:31:14;99305.80;;;4.90
71205;BMP180;58935;54.498;18.544;2024-01-25T05:33:39;99312.60;;;4.90
71205;BMP180;58935;54.498;18.544;2024-01-25T05:36:05;99290.40;;;4.90
71205;BMP180;58935;54.498;18.544;2024-01-25T05:38:32;99316.00;;;4.90
71205;BMP180;58935;54.498;18.544;2024-01-25T05:40:58;99306.80;;;4.90
71205;BMP180;58935;54.498;18.544;2024-01-25T05:43:25;99320.20;;;4.90
71205;BMP180;58935;54.498;18.544;2024-01-25T05:45:51;99334.80;;;4.90
71205;BMP180;58935;54.498;18.544;2024-01-25T05:48:17;99343.60;;;4.90
71205;BMP180;58935;54.498;18.544;2024-01-25T05:50:42;99329.00;;;4.90
71205;BMP180;58935;54.498;18.544;2024-01-25T05:53:08;99340.00;;;4.90
71205;BMP180;58935;54.498;18.544;2024-01-25T05:55:34;99343.60;;;4.90
71205;BMP180;58935;54.498;18.544;2024-01-25T05:57:59;99354.20;;;4.90
71205;BMP180;58935;54.498;18.544;2024-01-25T06:00:24;99349.20;;;4.90
71205;BMP180;58935;54.498;18.544;2024-01-25T06:02:50;99358.40;;;4.90
71205;BMP180;58935;54.498;18.544;2024-01-25T06:05:15;99367.40;;;4.90
71205;BMP180;58935;54.498;18.544;2024-01-25T06:07:43;99371.80;;;4.90
71205;BMP180;58935;54.498;18.544;2024-01-25T06:10:09;99379.20;;;4.90
71205;BMP180;58935;54.498;18.544;2024-01-25T06:12:35;99372.20;;;4.90
71205;BMP180;58935;54.498;18.544;2024-01-25T06:15:00;99381.20;;;4.90
71205;BMP180;58935;54.498;18.544;2024-01-25T06:17:26;99388.40;;;4.90
71205;BMP180;58935;54.498;18.544;2024-01-25T06:19:54;99401.60;;;4.90
71205;BMP180;58935;54.498;18.544;2024-01-25T06:22:19;99413.80;;;4.90
71205;BMP180;58935;54.498;18.544;2024-01-25T06:24:44;99408.00;;;4.86
71205;BMP180;58935;54.498;18.544;2024-01-25T06:27:10;99418.00;;;4.80
71205;BMP180;58935;54.498;18.544;2024-01-25T06:29:36;99432.40;;;4.80
71205;BMP180;58935;54.498;18.544;2024-01-25T06:32:01;99426.40;;;4.80
71205;BMP180;58935;54.498;18.544;2024-01-25T06:34:27;99435.20;;;4.80
71205;BMP180;58935;54.498;18.544;2024-01-25T06:36:53;99446.80;;;4.80
71205;BMP180;58935;54.498;18.544;2024-01-25T06:39:18;99450.60;;;4.70
71205;BMP180;58935;54.498;18.544;2024-01-25T06:41:44;99456.60;;;4.70
71205;BMP180;58935;54.498;18.544;2024-01-25T06:44:09;99476.60;;;4.70
71205;BMP180;58935;54.498;18.544;2024-01-25T06:46:35;99481.20;;;4.70
71205;BMP180;58935;54.498;18.544;2024-01-25T06:49:01;99490.20;;;4.64
71205;BMP180;58935;54.498;18.544;2024-01-25T06:51:26;99503.00;;;4.60
71205;BMP180;58935;54.498;18.544;2024-01-25T06:53:52;99535.20;;;4.32
71205;BMP180;58935;54.498;18.544;2024-01-25T06:56:17;99538.20;;;4.00
71205;BMP180;58935;54.498;18.544;2024-01-25T06:58:43;99537.00;;;3.80
71205;BMP180;58935;54.498;18.544;2024-01-25T07:01:08;99542.00;;;3.60
71205;BMP180;58935;54.498;18.544;2024-01-25T07:03:35;99554.20;;;3.50
71205;BMP180;58935;54.498;18.544;2024-01-25T07:06:00;99571.00;;;3.40
71205;BMP180;58935;54.498;18.544;2024-01-25T07:08:26;99582.20;;;3.30
71205;BMP180;58935;54.498;18.544;2024-01-25T07:10:51;99583.00;;;3.30
71205;BMP180;58935;54.498;18.544;2024-01-25T07:13:17;99595.80;;;3.20
71205;BMP180;58935;54.498;18.544;2024-01-25T07:15:42;99605.60;;;3.20
71205;BMP180;58935;54.498;18.544;2024-01-25T07:18:08;99618.00;;;3.20
71205;BMP180;58935;54.498;18.544;2024-01-25T07:20:34;99623.40;;;3.10
71205;BMP180;58935;54.498;18.544;2024-01-25T07:22:59;99625.00;;;2.90
71205;BMP180;58935;54.498;18.544;2024-01-25T07:25:25;99629.40;;;2.80
71205;BMP180;58935;54.498;18.544;2024-01-25T07:27:50;99642.00;;;2.70
71205;BMP180;58935;54.498;18.544;2024-01-25T07:30:16;99650.40;;;2.60
71205;BMP180;58935;54.498;18.544;2024-01-25T07:32:41;99655.80;;;2.60
71205;BMP180;58935;54.498;18.544;2024-01-25T07:35:09;99665.80;;;2.50
71205;BMP180;58935;54.498;18.544;2024-01-25T07:37:35;99668.20;;;2.50
71205;BMP180;58935;54.498;18.544;2024-01-25T07:40:04;99669.80;;;2.40
71205;BMP180;58935;54.498;18.544;2024-01-25T07:42:30;99682.20;;;2.40
71205;BMP180;58935;54.498;18.544;2024-01-25T07:44:55;99687.20;;;2.40
71205;BMP180;58935;54.498;18.544;2024-01-25T07:47:23;99697.40;;;2.40
71205;BMP180;58935;54.498;18.544;2024-01-25T07:49:49;99707.00;;;2.40
71205;BMP180;58935;54.498;18.544;2024-01-25T07:52:14;99710.00;;;2.38
71205;BMP180;58935;54.498;18.544;2024-01-25T07:54:40;99722.20;;;2.40
71205;BMP180;58935;54.498;18.544;2024-01-25T07:57:05;99732.40;;;2.40
71205;BMP180;58935;54.498;18.544;2024-01-25T07:59:30;99741.40;;;2.30
71205;BMP180;58935;54.498;18.544;2024-01-25T08:01:56;99748.40;;;2.30
71205;BMP180;58935;54.498;18.544;2024-01-25T08:04:21;99749.00;;;2.30
71205;BMP180;58935;54.498;18.544;2024-01-25T08:06:47;99766.20;;;2.30
71205;BMP180;58935;54.498;18.544;2024-01-25T08:09:12;99766.60;;;2.30
71205;BMP180;58935;54.498;18.544;2024-01-25T08:11:39;99774.80;;;2.30
71205;BMP180;58935;54.498;18.544;2024-01-25T08:14:06;99786.00;;;2.30
71205;BMP180;58935;54.498;18.544;2024-01-25T08:16:32;99787.60;;;2.30
71205;BMP180;58935;54.498;18.544;2024-01-25T08:18:57;99792.20;;;2.30
71205;BMP180;58935;54.498;18.544;2024-01-25T08:21:24;99796.20;;;2.30
71205;BMP180;58935;54.498;18.544;2024-01-25T08:23:50;99799.20;;;2.30
71205;BMP180;58935;54.498;18.544;2024-01-25T08:26:15;99807.00;;;2.30
71205;BMP180;58935;54.498;18.544;2024-01-25T08:28:42;99810.80;;;2.30
71205;BMP180;58935;54.498;18.544;2024-01-25T08:31:10;99828.40;;;2.30
71205;BMP180;58935;54.498;18.544;2024-01-25T08:33:36;99824.80;;;2.30
71205;BMP180;58935;54.498;18.544;2024-01-25T08:36:02;99823.20;;;2.30
71205;BMP180;58935;54.498;18.544;2024-01-25T08:38:28;99831.80;;;2.38
71205;BMP180;58935;54.498;18.544;2024-01-25T08:40:53;99839.20;;;2.40
71205;BMP180;58935;54.498;18.544;2024-01-25T08:43:19;99843.40;;;2.40
71205;BMP180;58935;54.498;18.544;2024-01-25T08:45:45;99845.80;;;2.40
71205;BMP180;58935;54.498;18.544;2024-01-25T08:48:11;99852.40;;;2.40
71205;BMP180;58935;54.498;18.544;2024-01-25T08:50:38;99853.60;;;2.40
71205;BMP180;58935;54.498;18.544;2024-01-25T08:53:04;99867.60;;;2.42
71205;BMP180;58935;54.498;18.544;2024-01-25T08:55:30;99864.80;;;2.50
71205;BMP180;58935;54.498;18.544;2024-01-25T08:57:55;99877.00;;;2.50
71205;BMP180;58935;54.498;18.544;2024-01-25T09:00:21;99880.80;;;2.50
71205;BMP180;58935;54.498;18.544;2024-01-25T09:02:47;99884.00;;;2.50
71205;BMP180;58935;54.498;18.544;2024-01-25T09:05:12;99888.20;;;2.60
71205;BMP180;58935;54.498;18.544;2024-01-25T09:07:38;99900.00;;;2.60
71205;BMP180;58935;54.498;18.544;2024-01-25T09:10:06;99924.00;;;2.66
71205;BMP180;58935;54.498;18.544;2024-01-25T09:12:31;99908.80;;;2.68
71205;BMP180;58935;54.498;18.544;2024-01-25T09:14:57;99918.80;;;2.70
71205;BMP180;58935;54.498;18.544;2024-01-25T09:17:22;99920.80;;;2.70
71205;BMP180;58935;54.498;18.544;2024-01-25T09:19:49;99932.40;;;2.76
71205;BMP180;58935;54.498;18.544;2024-01-25T09:22:15;99940.60;;;2.80
71205;BMP180;58935;54.498;18.544;2024-01-25T09:24:43;99951.80;;;2.84
71205;BMP180;58935;54.498;18.544;2024-01-25T09:27:09;99952.60;;;2.90
71205;BMP180;58935;54.498;18.544;2024-01-25T09:29:35;99966.00;;;2.90
71205;BMP180;58935;54.498;18.544;2024-01-25T09:32:00;99967.40;;;2.90
71205;BMP180;58935;54.498;18.544;2024-01-25T09:34:26;99976.60;;;2.92
71205;BMP180;58935;54.498;18.544;2024-01-25T09:44:45;99980.20;;;3.00
71205;BMP180;58935;54.498;18.544;2024-01-25T09:47:11;99981.20;;;3.10
71205;BMP180;58935;54.498;18.544;2024-01-25T09:49:37;99990.60;;;3.10
71205;BMP180;58935;54.498;18.544;2024-01-25T09:52:04;99992.20;;;3.10
71205;BMP180;58935;54.498;18.544;2024-01-25T09:54:34;99999.00;;;3.16
71205;BMP180;58935;54.498;18.544;2024-01-25T10:02:13;100013.20;;;3.30
71205;BMP180;58935;54.498;18.544;2024-01-25T10:04:39;100016.60;;;3.34
71205;BMP180;58935;54.498;18.544;2024-01-25T10:09:41;100030.80;;;3.38
71205;BMP180;58935;54.498;18.544;2024-01-25T10:12:08;100037.40;;;3.30
71205;BMP180;58935;54.498;18.544;2024-01-25T10:14:36;100031.80;;;3.32
71205;BMP180;58935;54.498;18.544;2024-01-25T10:17:03;100035.00;;;3.40
71205;BMP180;58935;54.498;18.544;2024-01-25T10:19:28;100053.00;;;3.40
71205;BMP180;58935;54.498;18.544;2024-01-25T10:21:58;100050.00;;;3.42
71205;BMP180;58935;54.498;18.544;2024-01-25T10:24:24;100047.80;;;3.50
71205;BMP180;58935;54.498;18.544;2024-01-25T10:26:49;100058.20;;;3.50
71205;BMP180;58935;54.498;18.544;2024-01-25T10:29:15;100056.60;;;3.50
71205;BMP180;58935;54.498;18.544;2024-01-25T10:31:41;100062.40;;;3.50
71205;BMP180;58935;54.498;18.544;2024-01-25T10:34:13;100081.40;;;3.50
71205;BMP180;58935;54.498;18.544;2024-01-25T10:36:39;100076.00;;;3.50
71205;BMP180;58935;54.498;18.544;2024-01-25T10:39:08;100068.40;;;3.50
71205;BMP180;58935;54.498;18.544;2024-01-25T10:41:35;100085.20;;;3.40
71205;BMP180;58935;54.498;18.544;2024-01-25T10:44:04;100076.00;;;3.40
71205;BMP180;58935;54.498;18.544;2024-01-25T10:46:32;100080.40;;;3.38
71205;BMP180;58935;54.498;18.544;2024-01-25T10:49:02;100081.20;;;3.40
71205;BMP180;58935;54.498;18.544;2024-01-25T10:56:48;100093.00;;;3.50
71205;BMP180;58935;54.498;18.544;2024-01-25T10:59:16;100095.60;;;3.50
71205;BMP180;58935;54.498;18.544;2024-01-25T11:01:45;100106.20;;;3.50
71205;BMP180;58935;54.498;18.544;2024-01-25T11:04:16;100107.00;;;3.50
71205;BMP180;58935;54.498;18.544;2024-01-25T11:06:45;100110.20;;;3.50
71205;BMP180;58935;54.498;18.544;2024-01-25T11:09:19;100110.40;;;3.58
71205;BMP180;58935;54.498;18.544;2024-01-25T11:11:48;100114.00;;;3.56
71205;BMP180;58935;54.498;18.544;2024-01-25T11:14:15;100120.80;;;3.60
71205;BMP180;58935;54.498;18.544;2024-01-25T11:16:43;100132.00;;;3.60
71205;BMP180;58935;54.498;18.544;2024-01-25T11:19:17;100143.80;;;3.50
71205;BMP180;58935;54.498;18.544;2024-01-25T11:21:45;100140.00;;;3.50
71205;BMP180;58935;54.498;18.544;2024-01-25T11:26:46;100150.20;;;3.40
71205;BMP180;58935;54.498;18.544;2024-01-25T11:29:16;100158.20;;;3.40
71205;BMP180;58935;54.498;18.544;2024-01-25T11:31:44;100158.60;;;3.40
71205;BMP180;58935;54.498;18.544;2024-01-25T11:34:11;100169.80;;;3.30
71205;BMP180;58935;54.498;18.544;2024-01-25T11:36:37;100161.60;;;3.30
71205;BMP180;58935;54.498;18.544;2024-01-25T11:39:05;100170.80;;;3.30
71205;BMP180;58935;54.498;18.544;2024-01-25T11:41:33;100176.60;;;3.22
71205;BMP180;58935;54.498;18.544;2024-01-25T11:44:04;100172.80;;;3.20
71205;BMP180;58935;54.498;18.544;2024-01-25T11:46:37;100181.20;;;3.20
71205;BMP180;58935;54.498;18.544;2024-01-25T11:49:03;100195.00;;;3.20
71205;BMP180;58935;54.498;18.544;2024-01-25T11:56:44;100191.00;;;3.12
71205;BMP180;58935;54.498;18.544;2024-01-25T11:59:10;100219.60;;;3.10
71205;BMP180;58935;54.498;18.544;2024-01-25T12:01:37;100209.00;;;3.10
71205;BMP180;58935;54.498;18.544;2024-01-25T12:04:06;100207.60;;;3.10
71205;BMP180;58935;54.498;18.544;2024-01-25T12:06:32;100220.40;;;3.00
71205;BMP180;58935;54.498;18.544;2024-01-25T12:09:07;100208.80;;;3.00
71205;BMP180;58935;54.498;18.544;2024-01-25T12:11:34;100208.00;;;3.00
71205;BMP180;58935;54.498;18.544;2024-01-25T12:14:00;100221.20;;;3.00
71205;BMP180;58935;54.498;18.544;2024-01-25T12:16:25;100231.60;;;3.00
71205;BMP180;58935;54.498;18.544;2024-01-25T12:18:51;100238.20;;;2.90
71205;BMP180;58935;54.498;18.544;2024-01-25T12:21:17;100232.00;;;2.90
71205;BMP180;58935;54.498;18.544;2024-01-25T12:23:43;100244.80;;;2.90
71205;BMP180;58935;54.498;18.544;2024-01-25T12:26:10;100250.00;;;2.90
71205;BMP180;58935;54.498;18.544;2024-01-25T12:28:37;100258.80;;;2.90
71205;BMP180;58935;54.498;18.544;2024-01-25T12:31:05;100261.00;;;2.80
71205;BMP180;58935;54.498;18.544;2024-01-25T12:33:32;100260.80;;;2.80
71205;BMP180;58935;54.498;18.544;2024-01-25T12:35:59;100266.20;;;2.80
71205;BMP180;58935;54.498;18.544;2024-01-25T12:38:28;100271.40;;;2.74
71205;BMP180;58935;54.498;18.544;2024-01-25T12:40:57;100275.20;;;2.74
71205;BMP180;58935;54.498;18.544;2024-01-25T13:01:34;100315.00;;;2.50
71205;BMP180;58935;54.498;18.544;2024-01-25T13:04:02;100328.80;;;2.42
71205;BMP180;58935;54.498;18.544;2024-01-25T13:06:28;100311.80;;;2.40
71205;BMP180;58935;54.498;18.544;2024-01-25T13:08:53;100326.20;;;2.40
71205;BMP180;58935;54.498;18.544;2024-01-25T13:11:19;100326.40;;;2.40
71205;BMP180;58935;54.498;18.544;2024-01-25T13:13:44;100331.20;;;2.40
71205;BMP180;58935;54.498;18.544;2024-01-25T13:16:10;100332.60;;;2.40
71205;BMP180;58935;54.498;18.544;2024-01-25T13:18:36;100336.80;;;2.40
71205;BMP180;58935;54.498;18.544;2024-01-25T13:21:01;100344.60;;;2.40
71205;BMP180;58935;54.498;18.544;2024-01-25T13:23:26;100351.60;;;2.40
71205;BMP180;58935;54.498;18.544;2024-01-25T13:25:55;100351.20;;;2.38
71205;BMP180;58935;54.498;18.544;2024-01-25T13:28:20;100363.60;;;2.34
71205;BMP180;58935;54.498;18.544;2024-01-25T13:30:45;100365.80;;;2.36
71205;BMP180;58935;54.498;18.544;2024-01-25T13:33:11;100379.00;;;2.40
71205;BMP180;58935;54.498;18.544;2024-01-25T13:35:36;100378.80;;;2.36
71205;BMP180;58935;54.498;18.544;2024-01-25T13:38:02;100380.80;;;2.40
71205;BMP180;58935;54.498;18.544;2024-01-25T13:40:27;100384.80;;;2.40
71205;BMP180;58935;54.498;18.544;2024-01-25T13:42:53;100390.00;;;2.40
71205;BMP180;58935;54.498;18.544;2024-01-25T13:45:20;100389.80;;;2.40
71205;BMP180;58935;54.498;18.544;2024-01-25T13:47:48;100409.80;;;2.38
71205;BMP180;58935;54.498;18.544;2024-01-25T13:50:14;100397.40;;;2.34
71205;BMP180;58935;54.498;18.544;2024-01-25T13:52:39;100401.40;;;2.30
71205;BMP180;58935;54.498;18.544;2024-01-25T13:55:05;100404.20;;;2.30
71205;BMP180;58935;54.498;18.544;2024-01-25T13:57:31;100419.00;;;2.30
71205;BMP180;58935;54.498;18.544;2024-01-25T13:59:57;100412.40;;;2.30
71205;BMP180;58935;54.498;18.544;2024-01-25T14:02:22;100430.20;;;2.30
71205;BMP180;58935;54.498;18.544;2024-01-25T14:04:48;100423.40;;;2.24
71205;BMP180;58935;54.498;18.544;2024-01-25T14:07:15;100429.40;;;2.20
71205;BMP180;58935;54.498;18.544;2024-01-25T14:09:42;100427.20;;;2.20
71205;BMP180;58935;54.498;18.544;2024-01-25T14:12:08;100434.80;;;2.20
71205;BMP180;58935;54.498;18.544;2024-01-25T14:14:33;100438.60;;;2.18
71205;BMP180;58935;54.498;18.544;2024-01-25T14:16:59;100453.00;;;2.20
71205;BMP180;58935;54.498;18.544;2024-01-25T14:19:24;100450.20;;;2.20
71205;BMP180;58935;54.498;18.544;2024-01-25T14:21:49;100449.80;;;2.20
71205;BMP180;58935;54.498;18.544;2024-01-25T14:24:16;100462.20;;;2.18
71205;BMP180;58935;54.498;18.544;2024-01-25T14:26:43;100473.60;;;2.10
71205;BMP180;58935;54.498;18.544;2024-01-25T14:29:13;100486.60;;;2.10
71205;BMP180;58935;54.498;18.544;2024-01-25T14:31:39;100490.80;;;2.00
71205;BMP180;58935;54.498;18.544;2024-01-25T14:34:07;100500.40;;;2.00
71205;BMP180;58935;54.498;18.544;2024-01-25T14:36:36;100496.80;;;2.00
71205;BMP180;58935;54.498;18.544;2024-01-25T14:39:02;100498.00;;;1.94
71205;BMP180;58935;54.498;18.544;2024-01-25T14:41:31;100511.80;;;2.00
71205;BMP180;58935;54.498;18.544;2024-01-25T14:43:59;100505.40;;;2.00
71205;BMP180;58935;54.498;18.544;2024-01-25T14:46:27;100507.80;;;2.00